Time;durP1;ratioP1;P1;durP2;ratioP2;P2;SDS_P1;SDS_P2;PMS_P1;PMS_P2;Temp;Humidity;BMP_temperature;BMP_pressure;BME280_temperature;BME280_humidity;BME280_pressure;Samples;Min_cycle;Max_cycle;Signal;HPM_P1;HPM_P2
2021/01/02 00:01:22;;;;;;;1.42;1.15;;;1.90;97.10;;;;;;4174214;28;20053;-85
2021/01/02 00:03:46;;;;;;;0.75;0.73;;;1.90;97.20;;;;;;4159564;28;20045;-86
2021/01/02 00:06:01;;;;;;;4.82;2.08;;;1.90;97.10;;;;;;4176214;28;20087;-85
2021/01/02 00:08:10;;;;;;;1.23;1.00;;;1.90;97.30;;;;;;4147255;28;20137;-85
2021/01/02 00:10:13;;;;;;;1.35;1.25;;;1.90;97.30;;;;;;4178022;28;20310;-86
2021/01/02 00:12:33;;;;;;;1.17;0.52;;;1.80;97.30;;;;;;4151036;28;20062;-86
2021/01/02 00:14:43;;;;;;;0.80;0.70;;;1.80;97.30;;;;;;4209578;28;20044;-85
2021/01/02 00:17:10;;;;;;;0.80;0.80;;;1.90;97.50;;;;;;4164193;28;20063;-85
2021/01/02 00:19:24;;;;;;;1.00;0.40;;;1.90;97.60;;;;;;4148627;28;20046;-86
2021/01/02 00:21:26;;;;;;;0.70;0.67;;;1.90;97.40;;;;;;4156365;28;20073;-85
2021/01/02 00:23:36;;;;;;;1.27;1.23;;;1.90;97.40;;;;;;4162244;28;20060;-85
2021/01/02 00:25:37;;;;;;;1.20;1.17;;;1.90;97.40;;;;;;4154470;28;20053;-85
2021/01/02 00:28:17;;;;;;;3.45;1.02;;;1.90;97.40;;;;;;4179661;28;20056;-85
2021/01/02 00:30:34;;;;;;;3.65;1.27;;;1.90;97.30;;;;;;4162520;28;20513;-84
2021/01/02 00:32:49;;;;;;;1.38;1.27;;;1.90;97.30;;;;;;4185155;28;20533;-86
2021/01/02 00:34:50;;;;;;;1.10;1.10;;;1.90;97.30;;;;;;4142691;28;20514;-86
2021/01/02 00:37:07;;;;;;;2.83;1.05;;;1.90;97.50;;;;;;4150410;28;20050;-86
2021/01/02 00:39:13;;;;;;;1.50;1.38;;;1.90;97.30;;;;;;4163101;28;20059;-86
2021/01/02 00:41:15;;;;;;;1.20;0.85;;;1.90;97.40;;;;;;4161727;28;20071;-86
2021/01/02 00:43:16;;;;;;;2.55;1.20;;;1.90;97.40;;;;;;4131390;28;20062;-86
2021/01/02 00:45:19;;;;;;;0.70;0.50;;;1.90;97.60;;;;;;4131718;28;20054;-86
2021/01/02 00:47:20;;;;;;;1.40;1.30;;;1.90;97.40;;;;;;4158807;28;20533;-86
2021/01/02 00:49:21;;;;;;;1.83;1.20;;;1.90;97.40;;;;;;4163509;28;20053;-86
2021/01/02 00:51:24;;;;;;;1.58;1.45;;;1.90;97.20;;;;;;4180686;28;20374;-86
2021/01/02 00:53:37;;;;;;;0.73;0.73;;;1.90;97.50;;;;;;4147583;28;20042;-86
2021/01/02 00:56:11;;;;;;;1.33;0.88;;;1.90;97.30;;;;;;4131134;28;20068;-86
2021/01/02 00:58:23;;;;;;;2.13;1.60;;;1.90;97.30;;;;;;4079681;29;20054;-86
2021/01/02 01:00:25;;;;;;;0.47;0.30;;;1.90;97.60;;;;;;4067997;29;20070;-85
2021/01/02 01:02:32;;;;;;;2.00;1.83;;;1.90;97.60;;;;;;4066827;29;20058;-86
2021/01/02 01:04:57;;;;;;;1.15;1.05;;;1.90;97.40;;;;;;4078977;29;20059;-86
2021/01/02 01:07:00;;;;;;;3.28;1.80;;;1.90;97.40;;;;;;4086535;29;20052;-86
2021/01/02 01:09:05;;;;;;;1.17;0.75;;;1.80;97.60;;;;;;4084250;29;20060;-87
2021/01/02 01:11:09;;;;;;;0.77;0.60;;;1.80;97.70;;;;;;4078942;29;20504;-87
2021/01/02 01:13:21;;;;;;;1.40;1.15;;;1.80;97.80;;;;;;4065123;29;20064;-87
2021/01/02 01:15:22;;;;;;;6.97;1.52;;;1.80;98.10;;;;;;4066846;29;20060;-87
2021/01/02 01:17:24;;;;;;;1.92;1.73;;;1.70;97.80;;;;;;4050301;29;20048;-87
2021/01/02 01:19:28;;;;;;;3.22;1.08;;;1.70;97.90;;;;;;4071853;29;20130;-86
2021/01/02 01:21:32;;;;;;;0.80;0.80;;;1.70;98.00;;;;;;4083255;29;20050;-88
2021/01/02 01:23:36;;;;;;;0.98;0.98;;;1.70;97.90;;;;;;4066932;29;20429;-87
2021/01/02 01:25:44;;;;;;;1.88;1.00;;;1.70;98.00;;;;;;4107747;28;20070;-86
2021/01/02 01:27:55;;;;;;;2.38;2.20;;;1.70;97.90;;;;;;4085641;28;20055;-86
2021/01/02 01:29:58;;;;;;;1.38;1.30;;;1.70;98.10;;;;;;4098764;29;20059;-87
2021/01/02 01:32:01;;;;;;;1.65;1.17;;;1.80;98.00;;;;;;4094209;28;20047;-86
2021/01/02 01:34:02;;;;;;;0.85;0.85;;;1.80;98.00;;;;;;4090124;28;20054;-86
2021/01/02 01:36:03;;;;;;;2.58;1.90;;;1.70;98.20;;;;;;4147696;28;20060;-86
2021/01/02 01:38:05;;;;;;;8.55;2.45;;;1.60;98.20;;;;;;4146920;28;20046;-87
2021/01/02 01:40:07;;;;;;;1.85;1.55;;;1.60;98.40;;;;;;4120093;28;20578;-87
2021/01/02 01:42:08;;;;;;;0.57;0.57;;;1.60;98.30;;;;;;4131215;28;20058;-86
2021/01/02 01:44:10;;;;;;;0.80;0.80;;;1.60;98.20;;;;;;4156729;28;20110;-86
2021/01/02 01:46:15;;;;;;;1.13;1.10;;;1.60;98.20;;;;;;4191260;28;20482;-87
2021/01/02 01:48:25;;;;;;;3.60;1.42;;;1.60;98.20;;;;;;4162422;28;20050;-86
2021/01/02 01:50:49;;;;;;;3.40;0.68;;;1.60;98.20;;;;;;4148401;28;20605;-86
2021/01/02 01:52:50;;;;;;;2.45;2.22;;;1.60;98.20;;;;;;4150726;28;20048;-86
2021/01/02 01:55:06;;;;;;;2.30;1.85;;;1.60;98.30;;;;;;4161732;28;20518;-87
2021/01/02 01:57:08;;;;;;;0.95;0.60;;;1.60;98.00;;;;;;4164530;28;20416;-86
2021/01/02 01:59:15;;;;;;;1.95;1.85;;;1.70;98.10;;;;;;4174696;28;20053;-86
2021/01/02 02:01:20;;;;;;;4.57;1.33;;;1.70;98.00;;;;;;4153346;28;20068;-86
2021/01/02 02:03:27;;;;;;;1.33;1.23;;;1.60;98.20;;;;;;4147514;28;20058;-86
2021/01/02 02:05:32;;;;;;;0.50;0.50;;;1.60;98.20;;;;;;4171190;28;20493;-86
2021/01/02 02:08:00;;;;;;;2.00;1.70;;;1.60;98.20;;;;;;4168737;28;20061;-87
2021/01/02 02:10:03;;;;;;;0.88;0.88;;;1.60;98.20;;;;;;4180663;28;20111;-87
2021/01/02 02:12:04;;;;;;;0.70;0.70;;;1.70;98.30;;;;;;4127923;28;20080;-87
2021/01/02 02:14:11;;;;;;;1.00;0.63;;;1.60;98.30;;;;;;4146288;28;20440;-84
2021/01/02 02:16:12;;;;;;;0.57;0.57;;;1.60;98.20;;;;;;4177813;28;20041;-85
2021/01/02 02:18:22;;;;;;;1.42;0.90;;;1.60;98.30;;;;;;4163551;28;20060;-86
2021/01/02 02:20:24;;;;;;;0.50;0.50;;;1.70;98.30;;;;;;4189590;28;20044;-86
2021/01/02 02:22:26;;;;;;;2.17;1.25;;;1.70;98.20;;;;;;4178600;28;20164;-86
2021/01/02 02:24:27;;;;;;;1.77;0.98;;;1.60;98.20;;;;;;4146811;28;20054;-86
2021/01/02 02:26:28;;;;;;;1.08;0.95;;;1.60;98.20;;;;;;4172390;28;20053;-87
2021/01/02 02:28:46;;;;;;;2.63;1.45;;;1.60;98.30;;;;;;4178528;28;20051;-88
2021/01/02 02:30:47;;;;;;;1.08;0.82;;;1.60;98.40;;;;;;4162594;28;20076;-86
2021/01/02 02:32:48;;;;;;;3.88;1.67;;;1.60;98.20;;;;;;4158109;28;20441;-86
2021/01/02 02:34:50;;;;;;;8.48;2.03;;;1.60;98.40;;;;;;4162628;28;20073;-86
2021/01/02 02:36:51;;;;;;;0.90;0.90;;;1.60;98.40;;;;;;4146629;28;20098;-86
2021/01/02 02:38:53;;;;;;;1.27;1.10;;;1.60;98.50;;;;;;4146744;28;20126;-87
2021/01/02 02:40:54;;;;;;;1.33;1.23;;;1.70;98.40;;;;;;4171243;28;20507;-86
2021/01/02 02:43:00;;;;;;;1.58;1.10;;;1.60;98.40;;;;;;4177579;28;20406;-86
2021/01/02 02:45:12;;;;;;;2.70;1.38;;;1.60;98.40;;;;;;4147235;28;20077;-86
2021/01/02 02:47:14;;;;;;;1.65;1.55;;;1.60;98.50;;;;;;4173926;28;20060;-86
2021/01/02 02:49:22;;;;;;;2.45;2.25;;;1.50;98.70;;;;;;4163796;28;20585;-87
2021/01/02 02:51:24;;;;;;;1.23;1.10;;;1.50;98.80;;;;;;4147711;28;20054;-87
2021/01/02 02:53:25;;;;;;;0.60;0.60;;;1.50;98.90;;;;;;4146283;28;20060;-86
2021/01/02 02:55:26;;;;;;;1.67;1.27;;;1.50;98.90;;;;;;4171881;28;20073;-86
2021/01/02 02:57:29;;;;;;;0.88;0.88;;;1.50;99.20;;;;;;4179108;28;20103;-86
2021/01/02 02:59:30;;;;;;;3.45;2.58;;;1.50;99.20;;;;;;4173498;28;20063;-87
2021/01/02 03:01:31;;;;;;;1.23;1.13;;;1.50;99.30;;;;;;4178597;28;20139;-86
2021/01/02 03:03:33;;;;;;;5.22;2.08;;;1.50;99.10;;;;;;4163020;28;20053;-86
2021/01/02 03:05:34;;;;;;;3.90;2.53;;;1.40;99.40;;;;;;4188186;28;20044;-86
2021/01/02 03:07:43;;;;;;;1.65;1.35;;;1.40;99.50;;;;;;4146467;28;20057;-87
2021/01/02 03:09:45;;;;;;;2.45;2.13;;;1.40;99.50;;;;;;4146584;28;20437;-86
2021/01/02 03:11:46;;;;;;;0.73;0.60;;;1.40;99.70;;;;;;4168070;28;20517;-86
2021/01/02 03:13:47;;;;;;;1.52;0.70;;;1.40;99.60;;;;;;4167217;28;20132;-86
2021/01/02 03:15:49;;;;;;;2.08;1.77;;;1.40;99.90;;;;;;4181373;28;20065;-86
2021/01/02 03:17:50;;;;;;;2.30;2.10;;;1.40;99.80;;;;;;4146561;28;20140;-86
2021/01/02 03:19:52;;;;;;;1.50;1.48;;;1.40;99.90;;;;;;4148713;28;20069;-86
2021/01/02 03:21:53;;;;;;;0.60;0.60;;;1.30;99.80;;;;;;4165267;28;20061;-86
2021/01/02 03:23:57;;;;;;;0.40;0.40;;;1.40;99.80;;;;;;4177888;28;20053;-86
2021/01/02 03:26:03;;;;;;;;;;;1.40;99.90;;;;;;4165990;28;20056;-86
2021/01/02 03:28:04;;;;;;;4.32;1.27;;;1.40;99.90;;;;;;4183243;28;19920;-87
2021/01/02 03:30:07;;;;;;;1.58;1.48;;;1.40;99.90;;;;;;4195514;28;20048;-86
2021/01/02 03:32:08;;;;;;;1.42;1.33;;;1.40;99.90;;;;;;4165453;28;20054;-86
2021/01/02 03:34:09;;;;;;;3.70;2.65;;;1.40;99.90;;;;;;4146691;28;20498;-86
2021/01/02 03:36:11;;;;;;;0.82;0.82;;;1.40;99.90;;;;;;4163326;28;20407;-85
2021/01/02 03:38:12;;;;;;;1.25;1.05;;;1.40;99.90;;;;;;4147344;28;20144;-85
2021/01/02 03:40:15;;;;;;;1.45;1.27;;;1.40;99.90;;;;;;4178844;28;20048;-86
2021/01/02 03:42:17;;;;;;;1.30;0.90;;;1.40;99.90;;;;;;4180788;28;20049;-84
2021/01/02 03:44:18;;;;;;;3.30;1.33;;;1.50;99.90;;;;;;4173352;28;20133;-84
2021/01/02 03:46:20;;;;;;;1.85;1.75;;;1.50;99.90;;;;;;4139541;28;20054;-84
2021/01/02 03:48:22;;;;;;;1.90;1.80;;;1.50;99.90;;;;;;4165852;28;20050;-84
2021/01/02 03:50:23;;;;;;;1.15;1.05;;;1.50;99.90;;;;;;4191614;28;20056;-86
2021/01/02 03:52:26;;;;;;;1.48;1.38;;;1.50;99.90;;;;;;4148482;28;20137;-86
2021/01/02 03:54:27;;;;;;;0.70;0.70;;;1.50;99.90;;;;;;4149543;28;20141;-87
2021/01/02 03:56:28;;;;;;;1.27;1.13;;;1.50;99.90;;;;;;4145960;28;20057;-86
2021/01/02 03:58:30;;;;;;;5.07;2.80;;;1.60;99.90;;;;;;4169849;28;20057;-86
2021/01/02 04:00:31;;;;;;;1.83;1.67;;;1.50;99.90;;;;;;4166018;28;20077;-87
2021/01/02 04:02:32;;;;;;;1.67;1.58;;;1.50;99.90;;;;;;4148555;28;20079;-86
2021/01/02 04:04:33;;;;;;;0.70;0.70;;;1.50;99.90;;;;;;4179731;28;20053;-86
2021/01/02 04:06:36;;;;;;;3.20;2.70;;;1.60;99.90;;;;;;4148873;28;20708;-87
2021/01/02 04:08:37;;;;;;;0.47;0.47;;;1.60;99.90;;;;;;4181199;28;20515;-86
2021/01/02 04:10:39;;;;;;;9.98;1.63;;;1.50;99.90;;;;;;4141893;28;20054;-86
2021/01/02 04:12:40;;;;;;;2.03;1.85;;;1.50;99.90;;;;;;4179356;28;20048;-87
2021/01/02 04:14:41;;;;;;;1.27;1.20;;;1.50;99.90;;;;;;4148568;28;20144;-85
2021/01/02 04:16:42;;;;;;;2.67;2.10;;;1.50;99.90;;;;;;4157282;28;20059;-85
2021/01/02 04:18:44;;;;;;;2.00;1.80;;;1.50;99.90;;;;;;4181285;28;20049;-84
2021/01/02 04:20:48;;;;;;;4.63;1.30;;;1.50;99.90;;;;;;4146352;28;20128;-85
2021/01/02 04:22:49;;;;;;;0.93;0.93;;;1.50;99.90;;;;;;4163253;28;20041;-84
2021/01/02 04:24:50;;;;;;;1.90;1.60;;;1.50;99.90;;;;;;4148383;28;20045;-85
2021/01/02 04:26:57;;;;;;;2.05;1.45;;;1.60;99.90;;;;;;4132343;28;20141;-84
2021/01/02 04:28:58;;;;;;;1.58;1.45;;;1.50;99.90;;;;;;4132622;28;20125;-84
2021/01/02 04:31:00;;;;;;;1.70;0.70;;;1.60;99.90;;;;;;4146520;28;20108;-85
2021/01/02 04:33:01;;;;;;;2.75;1.70;;;1.60;99.90;;;;;;4132458;28;20050;-86
2021/01/02 04:35:03;;;;;;;1.17;0.90;;;1.60;99.90;;;;;;4171462;28;20083;-85
2021/01/02 04:37:04;;;;;;;2.50;1.48;;;1.60;99.90;;;;;;4147952;28;20050;-84
2021/01/02 04:39:05;;;;;;;1.10;1.05;;;1.60;99.90;;;;;;4148358;28;20061;-85
2021/01/02 04:41:07;;;;;;;5.80;1.90;;;1.60;99.90;;;;;;4161425;28;20053;-85
2021/01/02 04:43:09;;;;;;;4.40;2.50;;;1.60;99.80;;;;;;4174917;28;20053;-84
2021/01/02 04:45:11;;;;;;;1.70;1.60;;;1.60;99.90;;;;;;4148176;28;20050;-85
2021/01/02 04:47:12;;;;;;;1.27;1.17;;;1.60;99.90;;;;;;4147608;28;20046;-85
2021/01/02 04:49:13;;;;;;;1.92;1.77;;;1.60;99.90;;;;;;4119281;28;20054;-85
2021/01/02 04:51:16;;;;;;;3.45;0.95;;;1.60;99.90;;;;;;4148685;28;20057;-85
2021/01/02 04:53:17;;;;;;;2.42;1.55;;;1.60;99.90;;;;;;4147547;28;20109;-85
2021/01/02 04:55:18;;;;;;;2.45;1.25;;;1.60;99.90;;;;;;4131299;28;20050;-85
2021/01/02 04:57:19;;;;;;;3.45;1.13;;;1.60;99.90;;;;;;4132167;28;20050;-84
2021/01/02 04:59:26;;;;;;;1.92;1.40;;;1.60;99.90;;;;;;4164906;28;20056;-85
2021/01/02 05:01:30;;;;;;;2.05;1.92;;;1.60;99.90;;;;;;4139618;28;20077;-85
2021/01/02 05:03:35;;;;;;;2.78;2.58;;;1.70;99.90;;;;;;4132162;28;20050;-85
2021/01/02 05:05:37;;;;;;;4.03;1.00;;;1.70;99.90;;;;;;4164144;28;20061;-85
2021/01/02 05:07:38;;;;;;;4.80;1.95;;;1.70;99.90;;;;;;4163951;28;20046;-85
2021/01/02 05:09:39;;;;;;;1.17;1.13;;;1.70;99.90;;;;;;4117710;28;20069;-84
2021/01/02 05:11:41;;;;;;;2.97;1.60;;;1.70;99.90;;;;;;4147621;28;20063;-85
2021/01/02 05:13:42;;;;;;;1.30;1.23;;;1.60;99.90;;;;;;4147255;28;20057;-84
2021/01/02 05:15:43;;;;;;;1.63;1.52;;;1.60;99.90;;;;;;4147469;28;20054;-84
2021/01/02 05:17:45;;;;;;;1.55;1.42;;;1.60;99.90;;;;;;4164057;28;20124;-84
2021/01/02 05:19:59;;;;;;;0.77;0.77;;;1.60;99.90;;;;;;4140398;28;20061;-85
2021/01/02 05:22:01;;;;;;;0.50;0.50;;;1.70;99.90;;;;;;4143688;28;20049;-85
2021/01/02 05:24:08;;;;;;;4.35;1.00;;;1.70;99.90;;;;;;4148036;28;20477;-84
2021/01/02 05:26:09;;;;;;;2.67;1.23;;;1.70;99.90;;;;;;4190113;28;20048;-84
2021/01/02 05:28:17;;;;;;;1.42;1.33;;;1.70;99.90;;;;;;4160552;28;20056;-85
2021/01/02 05:30:27;;;;;;;3.03;2.33;;;1.70;99.90;;;;;;4147825;28;20050;-84
2021/01/02 05:32:28;;;;;;;5.10;2.17;;;1.70;99.90;;;;;;4169297;28;20049;-86
2021/01/02 05:34:30;;;;;;;1.73;1.23;;;1.70;99.90;;;;;;4156014;28;20056;-86
2021/01/02 05:36:31;;;;;;;1.42;1.33;;;1.70;99.90;;;;;;4180549;28;20059;-84
2021/01/02 05:38:38;;;;;;;1.05;1.05;;;1.70;99.90;;;;;;4163691;28;20046;-84
2021/01/02 05:40:44;;;;;;;1.00;0.77;;;1.70;99.90;;;;;;4159700;28;20053;-84
2021/01/02 05:42:46;;;;;;;1.08;0.95;;;1.60;99.90;;;;;;4179130;28;20061;-84
2021/01/02 05:44:47;;;;;;;1.95;1.35;;;1.70;99.90;;;;;;4168946;28;20055;-85
2021/01/02 05:46:50;;;;;;;2.30;2.13;;;1.70;99.90;;;;;;4158149;28;20136;-85
2021/01/02 05:48:52;;;;;;;2.17;1.60;;;1.70;99.90;;;;;;4166960;28;20509;-84
2021/01/02 05:50:59;;;;;;;3.85;1.52;;;1.70;99.90;;;;;;4180677;28;20053;-84
2021/01/02 05:53:01;;;;;;;1.15;1.08;;;1.70;99.90;;;;;;4179844;28;20045;-84
2021/01/02 05:55:02;;;;;;;0.90;0.90;;;1.70;99.90;;;;;;4162678;28;20053;-84
2021/01/02 05:57:04;;;;;;;2.03;1.60;;;1.80;99.90;;;;;;4163560;28;20494;-85
2021/01/02 05:59:06;;;;;;;1.70;1.55;;;1.70;99.90;;;;;;4141046;28;20049;-84
2021/01/02 06:01:09;;;;;;;8.02;0.98;;;1.70;99.90;;;;;;4146987;28;20056;-84
2021/01/02 06:03:26;;;;;;;1.25;1.15;;;1.70;99.90;;;;;;4147465;28;20189;-84
2021/01/02 06:05:27;;;;;;;2.15;1.95;;;1.70;99.90;;;;;;4162641;28;20704;-84
2021/01/02 06:07:29;;;;;;;3.80;3.50;;;1.70;99.90;;;;;;4190078;28;20053;-84
2021/01/02 06:09:32;;;;;;;1.17;1.08;;;1.70;99.90;;;;;;4179087;28;20103;-84
2021/01/02 06:11:33;;;;;;;1.30;1.23;;;1.70;99.90;;;;;;4162496;28;20051;-84
2021/01/02 06:13:37;;;;;;;3.05;2.80;;;1.70;99.90;;;;;;4172221;28;20040;-84
2021/01/02 06:15:40;;;;;;;2.05;1.67;;;1.70;99.90;;;;;;4132659;28;20047;-84
2021/01/02 06:17:42;;;;;;;1.58;1.15;;;1.70;99.90;;;;;;4161565;28;20518;-85
2021/01/02 06:19:43;;;;;;;1.15;1.10;;;1.70;99.90;;;;;;4147445;28;20054;-84
2021/01/02 06:21:44;;;;;;;2.13;1.02;;;1.70;99.90;;;;;;4163557;28;20068;-84
2021/01/02 06:23:47;;;;;;;5.80;3.03;;;1.70;99.90;;;;;;4148540;28;20053;-84
2021/01/02 06:25:48;;;;;;;1.75;1.65;;;1.70;99.90;;;;;;4170794;28;20076;-85
2021/01/02 06:27:50;;;;;;;0.90;0.90;;;1.70;99.90;;;;;;4179641;28;20053;-84
2021/01/02 06:29:58;;;;;;;6.05;2.22;;;1.80;99.90;;;;;;4147151;28;20068;-85
2021/01/02 06:32:00;;;;;;;4.22;1.50;;;1.80;99.90;;;;;;4144906;28;20136;-85
2021/01/02 06:34:04;;;;;;;2.63;1.85;;;1.80;99.90;;;;;;4146596;28;20086;-86
2021/01/02 06:36:05;;;;;;;3.33;1.45;;;1.80;99.90;;;;;;4163615;28;20057;-86
2021/01/02 06:38:09;;;;;;;1.05;0.85;;;1.80;99.90;;;;;;4186934;28;20537;-86
2021/01/02 06:40:29;;;;;;;2.97;1.65;;;1.80;99.90;;;;;;4161361;28;20466;-86
2021/01/02 06:42:31;;;;;;;1.35;1.25;;;1.70;99.90;;;;;;4179291;28;20559;-86
2021/01/02 06:44:38;;;;;;;1.35;1.25;;;1.80;99.90;;;;;;4159870;28;20071;-87
2021/01/02 06:46:39;;;;;;;2.53;1.83;;;1.80;99.90;;;;;;4177907;28;20059;-87
2021/01/02 06:48:41;;;;;;;1.83;1.25;;;1.70;99.90;;;;;;4194507;28;20131;-87
2021/01/02 06:50:46;;;;;;;1.27;0.98;;;1.70;99.90;;;;;;4182998;28;20440;-86
2021/01/02 06:52:47;;;;;;;2.22;2.03;;;1.70;99.90;;;;;;4157579;28;20053;-87
2021/01/02 06:54:48;;;;;;;1.55;1.45;;;1.70;99.90;;;;;;4183873;28;20049;-84
2021/01/02 06:57:00;;;;;;;2.83;2.05;;;1.80;99.90;;;;;;4166066;28;20050;-84
2021/01/02 06:59:02;;;;;;;2.30;1.77;;;1.80;99.90;;;;;;4176287;28;20043;-84
2021/01/02 07:01:07;;;;;;;3.08;1.98;;;1.80;99.90;;;;;;4181192;28;20045;-87
2021/01/02 07:03:41;;;;;;;4.45;1.25;;;1.80;99.90;;;;;;4180680;28;20059;-85
2021/01/02 07:05:47;;;;;;;13.43;2.83;;;1.80;99.90;;;;;;4177158;28;20063;-86
2021/01/02 07:07:49;;;;;;;1.67;1.58;;;1.80;99.90;;;;;;4180627;28;20112;-83
2021/01/02 07:09:50;;;;;;;1.80;1.35;;;1.80;99.90;;;;;;4168055;28;20049;-86
2021/01/02 07:12:10;;;;;;;2.20;1.60;;;1.80;99.90;;;;;;4177282;28;20049;-86
2021/01/02 07:14:12;;;;;;;0.77;0.77;;;1.80;99.90;;;;;;4168781;28;20045;-85
2021/01/02 07:16:32;;;;;;;1.27;1.17;;;1.80;99.90;;;;;;4168357;28;20493;-86
2021/01/02 07:18:33;;;;;;;5.50;2.15;;;1.80;99.90;;;;;;4150768;28;20770;-86
2021/01/02 07:20:34;;;;;;;1.73;0.80;;;1.80;99.90;;;;;;4179815;28;20045;-85
2021/01/02 07:22:36;;;;;;;2.08;1.75;;;1.80;99.90;;;;;;4155841;28;20049;-86
2021/01/02 07:24:44;;;;;;;1.88;1.55;;;1.80;99.90;;;;;;4166759;28;20132;-86
2021/01/02 07:26:45;;;;;;;1.58;1.30;;;1.80;99.90;;;;;;4194658;28;20049;-86
2021/01/02 07:28:52;;;;;;;2.10;1.90;;;1.80;99.90;;;;;;4180568;28;20061;-86
2021/01/02 07:30:58;;;;;;;1.80;1.42;;;1.80;99.70;;;;;;4180275;28;20045;-87
2021/01/02 07:33:00;;;;;;;3.50;0.95;;;1.80;99.70;;;;;;4178539;28;20056;-86
2021/01/02 07:35:06;;;;;;;1.95;1.60;;;1.80;99.70;;;;;;4175509;28;20037;-86
2021/01/02 07:37:12;;;;;;;0.77;0.77;;;1.80;99.60;;;;;;4182650;28;20067;-87
2021/01/02 07:39:14;;;;;;;2.83;1.05;;;1.80;99.70;;;;;;4149334;28;20072;-83
2021/01/02 07:41:16;;;;;;;1.45;1.35;;;1.80;99.30;;;;;;4173781;28;20083;-86
2021/01/02 07:43:17;;;;;;;3.95;1.35;;;1.80;99.50;;;;;;4165769;28;20537;-86
2021/01/02 07:45:22;;;;;;;0.70;0.68;;;1.80;99.50;;;;;;4149437;28;20050;-86
2021/01/02 07:47:24;;;;;;;;;;;1.80;99.70;;;;;;4148204;28;20136;-87
2021/01/02 07:49:26;;;;;;;3.33;1.88;;;1.80;99.40;;;;;;4195784;28;19966;-83
2021/01/02 07:51:27;;;;;;;2.55;2.35;;;1.70;99.40;;;;;;4166176;28;20053;-84
2021/01/02 07:53:29;;;;;;;1.17;0.88;;;1.80;99.60;;;;;;4170784;28;20492;-83
2021/01/02 07:55:31;;;;;;;2.17;0.73;;;1.80;99.60;;;;;;4140219;28;20121;-84
2021/01/02 07:57:32;;;;;;;1.77;1.67;;;1.80;99.50;;;;;;4166204;28;20136;-84
2021/01/02 07:59:37;;;;;;;1.52;1.42;;;1.80;99.40;;;;;;4148798;28;20087;-85
2021/01/02 08:02:02;;;;;;;1.05;1.05;;;1.80;99.60;;;;;;4153011;28;20504;-84
2021/01/02 08:04:04;;;;;;;1.75;1.65;;;1.80;99.50;;;;;;4181074;28;20096;-84
2021/01/02 08:06:09;;;;;;;3.65;2.25;;;1.80;99.40;;;;;;4181825;28;20072;-84
2021/01/02 08:08:10;;;;;;;2.72;2.45;;;1.80;99.20;;;;;;4188629;28;20044;-84
2021/01/02 08:10:14;;;;;;;0.68;0.68;;;1.80;99.30;;;;;;4169947;28;20041;-83
2021/01/02 08:12:16;;;;;;;0.55;0.55;;;1.80;99.00;;;;;;4181651;28;20144;-84
2021/01/02 08:14:18;;;;;;;1.95;1.38;;;1.80;99.10;;;;;;4174388;28;20042;-84
2021/01/02 08:16:19;;;;;;;2.38;1.48;;;1.80;99.00;;;;;;4170226;28;20096;-85
2021/01/02 08:18:20;;;;;;;0.68;0.68;;;1.80;98.90;;;;;;4165589;28;20049;-84
2021/01/02 08:20:22;;;;;;;0.80;0.75;;;1.80;99.00;;;;;;4163124;28;20049;-85
2021/01/02 08:22:31;;;;;;;0.85;0.85;;;1.90;98.80;;;;;;4155713;28;20439;-85
2021/01/02 08:24:33;;;;;;;1.23;1.15;;;1.90;99.00;;;;;;4133020;28;20064;-87
2021/01/02 08:26:34;;;;;;;1.42;1.33;;;1.90;98.80;;;;;;4148414;28;20554;-87
2021/01/02 08:28:36;;;;;;;3.05;1.77;;;1.90;98.70;;;;;;4132338;28;20054;-87
2021/01/02 08:30:37;;;;;;;1.60;1.50;;;1.90;99.00;;;;;;4130808;28;20130;-85
2021/01/02 08:33:04;;;;;;;2.20;0.88;;;1.90;98.60;;;;;;4175019;28;20063;-84
2021/01/02 08:35:16;;;;;;;1.35;1.25;;;1.90;98.70;;;;;;4159597;28;20067;-85
2021/01/02 08:37:19;;;;;;;1.85;1.48;;;1.80;98.50;;;;;;4162671;28;20087;-84
2021/01/02 08:39:20;;;;;;;1.15;1.15;;;1.80;98.70;;;;;;4148605;28;20076;-85
2021/01/02 08:41:22;;;;;;;2.05;0.80;;;1.80;98.70;;;;;;4175040;28;20056;-84
2021/01/02 08:43:26;;;;;;;3.22;1.92;;;1.80;98.70;;;;;;4147599;28;20125;-83
2021/01/02 08:45:29;;;;;;;0.90;0.90;;;1.80;98.60;;;;;;4131862;28;20077;-83
2021/01/02 08:47:30;;;;;;;1.52;1.48;;;1.80;98.50;;;;;;4145862;28;20140;-84
2021/01/02 08:49:34;;;;;;;1.63;1.25;;;1.80;98.90;;;;;;4162438;28;20133;-83
2021/01/02 08:51:35;;;;;;;1.30;1.02;;;1.80;98.70;;;;;;4146714;28;20129;-83
2021/01/02 08:53:38;;;;;;;2.92;1.40;;;1.80;98.80;;;;;;4137469;28;20410;-83
2021/01/02 08:55:39;;;;;;;5.80;3.28;;;1.80;98.80;;;;;;4144540;28;20144;-83
2021/01/02 08:57:50;;;;;;;1.17;0.77;;;1.90;98.80;;;;;;4133634;28;20490;-83
2021/01/02 08:59:52;;;;;;;2.97;2.78;;;1.90;98.70;;;;;;4158939;28;20056;-83
2021/01/02 09:01:54;;;;;;;1.67;1.58;;;1.80;98.60;;;;;;4158983;28;20502;-83
2021/01/02 09:03:55;;;;;;;0.85;0.85;;;1.80;98.70;;;;;;4146893;28;20649;-83
2021/01/02 09:05:56;;;;;;;1.85;1.50;;;1.80;98.90;;;;;;4146443;28;20425;-85
2021/01/02 09:07:59;;;;;;;2.03;1.17;;;1.80;98.70;;;;;;4152294;28;20541;-85
2021/01/02 09:10:20;;;;;;;2.25;2.05;;;1.80;98.90;;;;;;4151666;28;20041;-85
2021/01/02 09:12:22;;;;;;;5.13;0.63;;;1.90;98.70;;;;;;4162997;28;20053;-83
2021/01/02 09:14:27;;;;;;;2.38;2.08;;;1.90;98.80;;;;;;4160699;28;20053;-84
2021/01/02 09:16:28;;;;;;;0.57;0.57;;;1.90;98.60;;;;;;4160553;28;20137;-84
2021/01/02 09:18:29;;;;;;;0.55;0.55;;;1.90;98.60;;;;;;4161982;28;20148;-83
2021/01/02 09:20:30;;;;;;;2.65;1.42;;;1.90;98.60;;;;;;4163187;28;20060;-85
2021/01/02 09:22:32;;;;;;;1.15;1.10;;;1.90;98.60;;;;;;4190311;28;20513;-82
2021/01/02 09:24:33;;;;;;;0.93;0.80;;;2.00;98.70;;;;;;4179354;28;20045;-82
2021/01/02 09:26:37;;;;;;;1.77;1.67;;;1.90;98.50;;;;;;4146708;28;20061;-82
2021/01/02 09:28:41;;;;;;;2.30;1.58;;;1.90;98.40;;;;;;4170737;28;20053;-83
2021/01/02 09:30:44;;;;;;;5.32;2.70;;;1.90;98.60;;;;;;4169638;28;20051;-82
2021/01/02 09:32:45;;;;;;;0.70;0.70;;;1.90;98.50;;;;;;4158455;28;20052;-85
2021/01/02 09:34:46;;;;;;;1.60;1.50;;;1.90;98.40;;;;;;4185197;28;20275;-83
2021/01/02 09:36:50;;;;;;;3.30;1.20;;;1.90;98.50;;;;;;4193891;28;20469;-83
2021/01/02 09:38:51;;;;;;;1.20;1.15;;;1.90;98.50;;;;;;4179383;28;20057;-84
2021/01/02 09:40:53;;;;;;;0.20;0.20;;;1.90;98.80;;;;;;4195330;28;20083;-85
2021/01/02 09:42:54;;;;;;;2.90;2.50;;;1.90;98.60;;;;;;4171926;28;20041;-83
2021/01/02 09:44:56;;;;;;;1.05;0.98;;;2.00;98.50;;;;;;4182496;28;20465;-83
2021/01/02 09:46:57;;;;;;;1.55;1.05;;;2.00;98.40;;;;;;4157334;28;20059;-82
2021/01/02 09:48:58;;;;;;;2.92;2.75;;;2.00;98.30;;;;;;4159985;28;20049;-83
2021/01/02 09:50:59;;;;;;;1.17;1.08;;;2.00;98.20;;;;;;4146588;28;20060;-84
2021/01/02 09:53:02;;;;;;;1.40;1.30;;;2.00;98.30;;;;;;4186665;28;20037;-85
2021/01/02 09:55:03;;;;;;;3.65;2.17;;;2.00;98.50;;;;;;4177342;28;20045;-83
2021/01/02 09:57:05;;;;;;;1.15;1.02;;;2.00;98.20;;;;;;4197243;28;20083;-82
2021/01/02 09:59:07;;;;;;;5.00;2.25;;;2.00;98.20;;;;;;4160739;28;20139;-83
2021/01/02 10:01:08;;;;;;;3.05;2.00;;;2.10;98.40;;;;;;4159352;28;20057;-83
2021/01/02 10:03:09;;;;;;;3.13;2.15;;;2.10;97.90;;;;;;4162947;28;20047;-83
2021/01/02 10:05:18;;;;;;;0.60;0.60;;;2.10;97.90;;;;;;4188062;28;20053;-83
2021/01/02 10:07:19;;;;;;;3.85;2.28;;;2.10;98.00;;;;;;4154291;28;20088;-83
2021/01/02 10:09:21;;;;;;;1.77;1.67;;;2.10;97.90;;;;;;4146504;28;20056;-83
2021/01/02 10:11:22;;;;;;;2.63;1.73;;;2.20;98.00;;;;;;4188305;28;20079;-83
2021/01/02 10:13:24;;;;;;;0.73;0.73;;;2.20;97.90;;;;;;4177101;28;20053;-83
2021/01/02 10:15:26;;;;;;;1.20;1.08;;;2.20;98.00;;;;;;4152427;28;20609;-82
2021/01/02 10:17:28;;;;;;;1.75;1.65;;;2.20;98.00;;;;;;4161443;28;20050;-81
2021/01/02 10:19:32;;;;;;;5.82;1.48;;;2.20;97.80;;;;;;4143371;28;20136;-81
2021/01/02 10:21:33;;;;;;;3.10;1.48;;;2.20;97.80;;;;;;4175174;28;20059;-82
2021/01/02 10:23:34;;;;;;;0.55;0.55;;;2.20;98.00;;;;;;4194685;28;20040;-81
2021/01/02 10:25:35;;;;;;;2.72;1.15;;;2.20;97.90;;;;;;4177027;28;20057;-81
2021/01/02 10:27:37;;;;;;;1.20;0.88;;;2.20;97.90;;;;;;4145316;28;20085;-81
2021/01/02 10:29:45;;;;;;;1.48;1.42;;;2.20;97.90;;;;;;4163042;28;20049;-81
2021/01/02 10:31:46;;;;;;;3.28;2.28;;;2.20;97.80;;;;;;4193200;28;20507;-83
2021/01/02 10:33:47;;;;;;;1.95;1.08;;;2.20;98.20;;;;;;4142939;28;20046;-82
2021/01/02 10:35:49;;;;;;;2.50;1.15;;;2.20;98.00;;;;;;4179222;28;20064;-81
2021/01/02 10:37:50;;;;;;;1.95;1.85;;;2.30;98.00;;;;;;4147881;28;20050;-82
2021/01/02 10:39:51;;;;;;;0.50;0.50;;;2.30;98.10;;;;;;4148093;28;20053;-82
2021/01/02 10:41:53;;;;;;;2.55;1.58;;;2.30;97.90;;;;;;4166035;28;20141;-81
2021/01/02 10:43:54;;;;;;;7.10;2.17;;;2.30;98.00;;;;;;4179648;28;20445;-82
2021/01/02 10:45:55;;;;;;;3.28;1.98;;;2.30;97.90;;;;;;4170936;28;20419;-82
2021/01/02 10:47:57;;;;;;;4.80;1.85;;;2.30;98.10;;;;;;4186959;28;20083;-82
2021/01/02 10:49:58;;;;;;;1.83;1.23;;;2.30;98.00;;;;;;4151606;28;20064;-82
2021/01/02 10:52:00;;;;;;;0.68;0.68;;;2.30;98.10;;;;;;4163634;28;20050;-82
2021/01/02 10:54:01;;;;;;;3.78;2.10;;;2.30;97.80;;;;;;4176868;28;20047;-82
2021/01/02 10:56:02;;;;;;;1.92;1.50;;;2.40;97.80;;;;;;4216784;28;20040;-82